sensor_id;sensor_type;location;lat;lon;timestamp;P1;durP1;ratioP1;P2;durP2;ratioP2
20114;SDS011;10218;42.874;25.320;2022-11-20T00:01:23;15.33;;;5.27;;
20114;SDS011;10218;42.874;25.320;2022-11-20T00:03:53;18.27;;;5.57;;
20114;SDS011;10218;42.874;25.320;2022-11-20T00:06:21;18.23;;;5.83;;
20114;SDS011;10218;42.874;25.320;2022-11-20T00:08:50;13.07;;;5.80;;
20114;SDS011;10218;42.874;25.320;2022-11-20T00:11:18;13.60;;;5.57;;
20114;SDS011;10218;42.874;25.320;2022-11-20T00:13:48;20.20;;;6.07;;
20114;SDS011;10218;42.874;25.320;2022-11-20T00:16:18;17.27;;;5.40;;
20114;SDS011;10218;42.874;25.320;2022-11-20T00:18:49;10.40;;;4.90;;
20114;SDS011;10218;42.874;25.320;2022-11-20T00:21:21;16.00;;;6.17;;
20114;SDS011;10218;42.874;25.320;2022-11-20T00:23:51;21.30;;;5.77;;
20114;SDS011;10218;42.874;25.320;2022-11-20T00:26:21;17.00;;;5.57;;
20114;SDS011;10218;42.874;25.320;2022-11-20T00:28:51;21.33;;;6.43;;
20114;SDS011;10218;42.874;25.320;2022-11-20T00:31:20;16.20;;;5.67;;
20114;SDS011;10218;42.874;25.320;2022-11-20T00:33:47;17.03;;;5.70;;
20114;SDS011;10218;42.874;25.320;2022-11-20T00:36:15;14.90;;;5.87;;
20114;SDS011;10218;42.874;25.320;2022-11-20T00:38:50;16.57;;;5.93;;
20114;SDS011;10218;42.874;25.320;2022-11-20T00:41:18;18.87;;;5.67;;
20114;SDS011;10218;42.874;25.320;2022-11-20T00:43:46;16.37;;;5.80;;
20114;SDS011;10218;42.874;25.320;2022-11-20T00:46:14;18.90;;;5.37;;
20114;SDS011;10218;42.874;25.320;2022-11-20T00:48:44;14.13;;;5.40;;
20114;SDS011;10218;42.874;25.320;2022-11-20T00:51:13;17.53;;;5.63;;
20114;SDS011;10218;42.874;25.320;2022-11-20T00:53:42;15.93;;;5.77;;
20114;SDS011;10218;42.874;25.320;2022-11-20T00:56:10;12.70;;;5.53;;
20114;SDS011;10218;42.874;25.320;2022-11-20T00:58:40;17.27;;;5.17;;
20114;SDS011;10218;42.874;25.320;2022-11-20T01:01:10;13.97;;;5.90;;
20114;SDS011;10218;42.874;25.320;2022-11-20T01:03:40;14.73;;;6.23;;
20114;SDS011;10218;42.874;25.320;2022-11-20T01:06:11;18.53;;;6.13;;
20114;SDS011;10218;42.874;25.320;2022-11-20T01:08:41;10.53;;;4.87;;
20114;SDS011;10218;42.874;25.320;2022-11-20T01:11:10;12.93;;;4.70;;
20114;SDS011;10218;42.874;25.320;2022-11-20T01:13:40;13.40;;;5.20;;
20114;SDS011;10218;42.874;25.320;2022-11-20T01:16:10;13.97;;;5.27;;
20114;SDS011;10218;42.874;25.320;2022-11-20T01:18:40;16.70;;;5.10;;
20114;SDS011;10218;42.874;25.320;2022-11-20T01:21:10;19.17;;;5.43;;
20114;SDS011;10218;42.874;25.320;2022-11-20T01:23:40;17.50;;;5.30;;
20114;SDS011;10218;42.874;25.320;2022-11-20T01:26:10;14.20;;;4.60;;
20114;SDS011;10218;42.874;25.320;2022-11-20T01:28:43;15.27;;;5.60;;
20114;SDS011;10218;42.874;25.320;2022-11-20T01:31:15;14.27;;;5.57;;
20114;SDS011;10218;42.874;25.320;2022-11-20T01:33:48;13.93;;;4.73;;
20114;SDS011;10218;42.874;25.320;2022-11-20T01:36:18;17.10;;;5.23;;
20114;SDS011;10218;42.874;25.320;2022-11-20T01:38:47;12.97;;;4.47;;
20114;SDS011;10218;42.874;25.320;2022-11-20T01:41:17;13.03;;;5.10;;
20114;SDS011;10218;42.874;25.320;2022-11-20T01:44:03;19.03;;;5.07;;
20114;SDS011;10218;42.874;25.320;2022-11-20T01:46:32;13.60;;;4.37;;
20114;SDS011;10218;42.874;25.320;2022-11-20T01:49:05;9.97;;;4.90;;
20114;SDS011;10218;42.874;25.320;2022-11-20T01:51:51;12.43;;;5.13;;
20114;SDS011;10218;42.874;25.320;2022-11-20T01:54:40;13.07;;;4.93;;
20114;SDS011;10218;42.874;25.320;2022-11-20T01:57:12;22.03;;;6.20;;
20114;SDS011;10218;42.874;25.320;2022-11-20T01:59:44;14.00;;;6.13;;
20114;SDS011;10218;42.874;25.320;2022-11-20T02:02:19;14.00;;;5.00;;
20114;SDS011;10218;42.874;25.320;2022-11-20T02:04:49;17.87;;;5.63;;
20114;SDS011;10218;42.874;25.320;2022-11-20T02:07:19;8.67;;;3.93;;
20114;SDS011;10218;42.874;25.320;2022-11-20T02:09:48;14.20;;;5.10;;
20114;SDS011;10218;42.874;25.320;2022-11-20T02:12:15;13.53;;;5.57;;
20114;SDS011;10218;42.874;25.320;2022-11-20T02:15:01;8.87;;;4.10;;
20114;SDS011;10218;42.874;25.320;2022-11-20T02:17:29;11.73;;;4.43;;
20114;SDS011;10218;42.874;25.320;2022-11-20T02:19:57;14.70;;;4.90;;
20114;SDS011;10218;42.874;25.320;2022-11-20T02:22:28;18.00;;;4.73;;
20114;SDS011;10218;42.874;25.320;2022-11-20T02:25:01;15.87;;;5.20;;
20114;SDS011;10218;42.874;25.320;2022-11-20T02:27:30;15.37;;;5.30;;
20114;SDS011;10218;42.874;25.320;2022-11-20T02:30:00;15.53;;;6.57;;
20114;SDS011;10218;42.874;25.320;2022-11-20T02:32:31;13.03;;;6.60;;
20114;SDS011;10218;42.874;25.320;2022-11-20T02:37:36;17.53;;;5.37;;
20114;SDS011;10218;42.874;25.320;2022-11-20T02:40:06;12.10;;;4.87;;
20114;SDS011;10218;42.874;25.320;2022-11-20T02:42:35;18.10;;;5.60;;
20114;SDS011;10218;42.874;25.320;2022-11-20T02:45:06;20.90;;;4.53;;
20114;SDS011;10218;42.874;25.320;2022-11-20T02:47:34;16.27;;;4.93;;
20114;SDS011;10218;42.874;25.320;2022-11-20T02:50:01;18.97;;;6.37;;
20114;SDS011;10218;42.874;25.320;2022-11-20T02:52:30;12.83;;;4.77;;
20114;SDS011;10218;42.874;25.320;2022-11-20T02:54:57;14.57;;;4.97;;
20114;SDS011;10218;42.874;25.320;2022-11-20T02:57:25;11.90;;;4.43;;
20114;SDS011;10218;42.874;25.320;2022-11-20T02:59:53;14.93;;;6.27;;
20114;SDS011;10218;42.874;25.320;2022-11-20T03:02:21;12.83;;;4.80;;
20114;SDS011;10218;42.874;25.320;2022-11-20T03:04:48;14.07;;;4.63;;
20114;SDS011;10218;42.874;25.320;2022-11-20T03:07:15;14.00;;;5.07;;
20114;SDS011;10218;42.874;25.320;2022-11-20T03:09:43;13.97;;;4.30;;
20114;SDS011;10218;42.874;25.320;2022-11-20T03:12:11;16.57;;;5.80;;
20114;SDS011;10218;42.874;25.320;2022-11-20T03:14:38;12.53;;;4.47;;
20114;SDS011;10218;42.874;25.320;2022-11-20T03:17:05;10.50;;;4.20;;
20114;SDS011;10218;42.874;25.320;2022-11-20T03:19:32;13.53;;;4.60;;
20114;SDS011;10218;42.874;25.320;2022-11-20T03:22:01;11.63;;;3.93;;
20114;SDS011;10218;42.874;25.320;2022-11-20T03:24:29;14.23;;;4.00;;
20114;SDS011;10218;42.874;25.320;2022-11-20T03:26:57;10.93;;;3.70;;
20114;SDS011;10218;42.874;25.320;2022-11-20T03:29:24;12.60;;;3.93;;
20114;SDS011;10218;42.874;25.320;2022-11-20T03:31:51;19.27;;;4.57;;
20114;SDS011;10218;42.874;25.320;2022-11-20T03:34:18;13.20;;;4.07;;
20114;SDS011;10218;42.874;25.320;2022-11-20T03:36:45;12.30;;;4.53;;
20114;SDS011;10218;42.874;25.320;2022-11-20T03:39:12;12.23;;;4.20;;
20114;SDS011;10218;42.874;25.320;2022-11-20T03:41:40;14.77;;;3.97;;
20114;SDS011;10218;42.874;25.320;2022-11-20T03:44:09;15.77;;;3.60;;
20114;SDS011;10218;42.874;25.320;2022-11-20T03:46:38;10.33;;;3.77;;
20114;SDS011;10218;42.874;25.320;2022-11-20T03:49:05;14.73;;;3.40;;
20114;SDS011;10218;42.874;25.320;2022-11-20T03:51:33;12.17;;;3.60;;
20114;SDS011;10218;42.874;25.320;2022-11-20T03:54:05;9.03;;;3.63;;
20114;SDS011;10218;42.874;25.320;2022-11-20T03:56:35;11.53;;;5.00;;
20114;SDS011;10218;42.874;25.320;2022-11-20T03:59:04;14.17;;;3.37;;
20114;SDS011;10218;42.874;25.320;2022-11-20T04:01:33;9.00;;;3.60;;
20114;SDS011;10218;42.874;25.320;2022-11-20T04:04:02;11.40;;;3.50;;
20114;SDS011;10218;42.874;25.320;2022-11-20T04:06:32;9.40;;;3.13;;
20114;SDS011;10218;42.874;25.320;2022-11-20T04:09:02;11.77;;;4.13;;
20114;SDS011;10218;42.874;25.320;2022-11-20T04:11:31;13.20;;;3.60;;
20114;SDS011;10218;42.874;25.320;2022-11-20T04:14:04;9.77;;;3.33;;
20114;SDS011;10218;42.874;25.320;2022-11-20T04:16:34;10.83;;;4.27;;
20114;SDS011;10218;42.874;25.320;2022-11-20T04:19:03;10.50;;;4.13;;
20114;SDS011;10218;42.874;25.320;2022-11-20T04:21:31;7.83;;;3.23;;
20114;SDS011;10218;42.874;25.320;2022-11-20T04:23:59;10.13;;;3.87;;
20114;SDS011;10218;42.874;25.320;2022-11-20T04:26:27;14.30;;;3.87;;
20114;SDS011;10218;42.874;25.320;2022-11-20T04:28:56;11.90;;;4.13;;
20114;SDS011;10218;42.874;25.320;2022-11-20T04:31:26;10.87;;;4.20;;
20114;SDS011;10218;42.874;25.320;2022-11-20T04:33:55;13.33;;;4.03;;
20114;SDS011;10218;42.874;25.320;2022-11-20T04:36:27;9.00;;;3.40;;
20114;SDS011;10218;42.874;25.320;2022-11-20T04:38:57;12.73;;;4.27;;
20114;SDS011;10218;42.874;25.320;2022-11-20T04:41:27;14.43;;;4.53;;
20114;SDS011;10218;42.874;25.320;2022-11-20T04:43:57;13.37;;;5.53;;
20114;SDS011;10218;42.874;25.320;2022-11-20T04:46:33;13.63;;;5.83;;
20114;SDS011;10218;42.874;25.320;2022-11-20T04:49:03;10.87;;;4.47;;
20114;SDS011;10218;42.874;25.320;2022-11-20T04:51:31;12.40;;;3.50;;
20114;SDS011;10218;42.874;25.320;2022-11-20T04:53:59;12.17;;;3.70;;
20114;SDS011;10218;42.874;25.320;2022-11-20T04:56:27;13.37;;;3.73;;
20114;SDS011;10218;42.874;25.320;2022-11-20T04:58:54;18.27;;;3.50;;
20114;SDS011;10218;42.874;25.320;2022-11-20T05:01:22;15.30;;;3.57;;
20114;SDS011;10218;42.874;25.320;2022-11-20T05:03:51;11.30;;;3.30;;
20114;SDS011;10218;42.874;25.320;2022-11-20T05:06:19;14.53;;;5.03;;
20114;SDS011;10218;42.874;25.320;2022-11-20T05:08:48;12.20;;;3.50;;
20114;SDS011;10218;42.874;25.320;2022-11-20T05:11:17;10.87;;;3.90;;
20114;SDS011;10218;42.874;25.320;2022-11-20T05:13:46;12.00;;;3.30;;
20114;SDS011;10218;42.874;25.320;2022-11-20T05:16:15;11.20;;;3.27;;
20114;SDS011;10218;42.874;25.320;2022-11-20T05:18:44;8.60;;;3.07;;
20114;SDS011;10218;42.874;25.320;2022-11-20T05:21:12;14.43;;;3.57;;
20114;SDS011;10218;42.874;25.320;2022-11-20T05:23:40;14.80;;;3.73;;
20114;SDS011;10218;42.874;25.320;2022-11-20T05:26:11;18.10;;;3.37;;
20114;SDS011;10218;42.874;25.320;2022-11-20T05:28:41;9.20;;;3.47;;
20114;SDS011;10218;42.874;25.320;2022-11-20T05:31:10;9.80;;;3.10;;
20114;SDS011;10218;42.874;25.320;2022-11-20T05:33:40;9.77;;;2.93;;
20114;SDS011;10218;42.874;25.320;2022-11-20T05:36:09;10.07;;;3.27;;
20114;SDS011;10218;42.874;25.320;2022-11-20T05:38:38;11.00;;;3.50;;
20114;SDS011;10218;42.874;25.320;2022-11-20T05:41:10;12.70;;;3.17;;
20114;SDS011;10218;42.874;25.320;2022-11-20T05:43:43;10.27;;;3.30;;
20114;SDS011;10218;42.874;25.320;2022-11-20T05:46:11;8.30;;;3.23;;
20114;SDS011;10218;42.874;25.320;2022-11-20T05:48:41;21.73;;;7.80;;
20114;SDS011;10218;42.874;25.320;2022-11-20T05:51:11;9.40;;;4.37;;
20114;SDS011;10218;42.874;25.320;2022-11-20T05:53:39;15.20;;;7.03;;
20114;SDS011;10218;42.874;25.320;2022-11-20T05:56:17;9.97;;;5.30;;
20114;SDS011;10218;42.874;25.320;2022-11-20T05:58:47;13.53;;;7.60;;
20114;SDS011;10218;42.874;25.320;2022-11-20T06:01:17;12.70;;;4.77;;
20114;SDS011;10218;42.874;25.320;2022-11-20T06:03:50;17.77;;;7.60;;
20114;SDS011;10218;42.874;25.320;2022-11-20T06:06:18;16.13;;;7.17;;
20114;SDS011;10218;42.874;25.320;2022-11-20T06:08:46;11.43;;;3.83;;
20114;SDS011;10218;42.874;25.320;2022-11-20T06:11:14;23.57;;;7.97;;
20114;SDS011;10218;42.874;25.320;2022-11-20T06:13:42;12.17;;;4.10;;
20114;SDS011;10218;42.874;25.320;2022-11-20T06:16:10;27.10;;;11.00;;
20114;SDS011;10218;42.874;25.320;2022-11-20T06:18:41;14.97;;;4.50;;
20114;SDS011;10218;42.874;25.320;2022-11-20T06:21:15;25.90;;;13.13;;
20114;SDS011;10218;42.874;25.320;2022-11-20T06:23:44;12.27;;;4.70;;
20114;SDS011;10218;42.874;25.320;2022-11-20T06:26:13;8.03;;;2.73;;
20114;SDS011;10218;42.874;25.320;2022-11-20T06:28:44;10.77;;;3.30;;
20114;SDS011;10218;42.874;25.320;2022-11-20T06:31:13;12.53;;;7.10;;
20114;SDS011;10218;42.874;25.320;2022-11-20T06:33:44;8.00;;;4.23;;
20114;SDS011;10218;42.874;25.320;2022-11-20T06:36:12;12.03;;;4.00;;
20114;SDS011;10218;42.874;25.320;2022-11-20T06:38:42;12.47;;;4.07;;
20114;SDS011;10218;42.874;25.320;2022-11-20T06:41:17;11.00;;;3.73;;
20114;SDS011;10218;42.874;25.320;2022-11-20T06:43:46;8.70;;;3.00;;
20114;SDS011;10218;42.874;25.320;2022-11-20T06:46:14;10.27;;;2.50;;
20114;SDS011;10218;42.874;25.320;2022-11-20T06:48:46;10.70;;;2.47;;
20114;SDS011;10218;42.874;25.320;2022-11-20T06:51:14;9.00;;;2.50;;
20114;SDS011;10218;42.874;25.320;2022-11-20T06:53:41;10.13;;;2.83;;
20114;SDS011;10218;42.874;25.320;2022-11-20T06:56:09;10.13;;;3.07;;
20114;SDS011;10218;42.874;25.320;2022-11-20T06:58:38;8.90;;;2.80;;
20114;SDS011;10218;42.874;25.320;2022-11-20T07:01:10;7.93;;;2.40;;
20114;SDS011;10218;42.874;25.320;2022-11-20T07:03:40;9.10;;;2.67;;
20114;SDS011;10218;42.874;25.320;2022-11-20T07:06:07;10.80;;;2.70;;
20114;SDS011;10218;42.874;25.320;2022-11-20T07:08:35;5.57;;;2.50;;
20114;SDS011;10218;42.874;25.320;2022-11-20T07:11:04;6.43;;;2.70;;
20114;SDS011;10218;42.874;25.320;2022-11-20T07:13:33;6.77;;;2.40;;
20114;SDS011;10218;42.874;25.320;2022-11-20T07:16:02;6.63;;;2.73;;
20114;SDS011;10218;42.874;25.320;2022-11-20T07:18:31;10.70;;;3.20;;
20114;SDS011;10218;42.874;25.320;2022-11-20T07:21:02;9.73;;;2.80;;
20114;SDS011;10218;42.874;25.320;2022-11-20T07:23:31;7.27;;;2.90;;
20114;SDS011;10218;42.874;25.320;2022-11-20T07:25:58;7.70;;;2.77;;
20114;SDS011;10218;42.874;25.320;2022-11-20T07:28:30;10.97;;;3.63;;
20114;SDS011;10218;42.874;25.320;2022-11-20T07:30:57;9.20;;;3.33;;
20114;SDS011;10218;42.874;25.320;2022-11-20T07:33:24;10.90;;;3.83;;
20114;SDS011;10218;42.874;25.320;2022-11-20T07:35:51;10.93;;;3.77;;
20114;SDS011;10218;42.874;25.320;2022-11-20T07:38:18;10.50;;;3.77;;
20114;SDS011;10218;42.874;25.320;2022-11-20T07:40:45;7.93;;;3.53;;
20114;SDS011;10218;42.874;25.320;2022-11-20T07:43:12;9.40;;;4.07;;
20114;SDS011;10218;42.874;25.320;2022-11-20T07:45:41;11.03;;;3.23;;
20114;SDS011;10218;42.874;25.320;2022-11-20T07:48:08;5.57;;;4.00;;
20114;SDS011;10218;42.874;25.320;2022-11-20T07:50:35;6.33;;;4.40;;
20114;SDS011;10218;42.874;25.320;2022-11-20T07:53:05;6.47;;;4.50;;
20114;SDS011;10218;42.874;25.320;2022-11-20T07:55:33;10.67;;;5.20;;
20114;SDS011;10218;42.874;25.320;2022-11-20T07:58:00;8.70;;;5.80;;
20114;SDS011;10218;42.874;25.320;2022-11-20T08:00:27;8.53;;;5.53;;
20114;SDS011;10218;42.874;25.320;2022-11-20T08:02:55;9.53;;;6.43;;
20114;SDS011;10218;42.874;25.320;2022-11-20T08:05:23;8.93;;;6.33;;
20114;SDS011;10218;42.874;25.320;2022-11-20T08:07:50;7.23;;;5.97;;
20114;SDS011;10218;42.874;25.320;2022-11-20T08:10:17;8.30;;;6.53;;
20114;SDS011;10218;42.874;25.320;2022-11-20T08:12:48;8.23;;;6.50;;
20114;SDS011;10218;42.874;25.320;2022-11-20T08:15:36;8.60;;;6.30;;
20114;SDS011;10218;42.874;25.320;2022-11-20T08:18:08;9.87;;;6.90;;
20114;SDS011;10218;42.874;25.320;2022-11-20T08:21:01;7.30;;;6.07;;
20114;SDS011;10218;42.874;25.320;2022-11-20T08:23:31;9.53;;;6.87;;
20114;SDS011;10218;42.874;25.320;2022-11-20T08:25:58;9.73;;;7.20;;
20114;SDS011;10218;42.874;25.320;2022-11-20T08:28:25;8.37;;;6.60;;
20114;SDS011;10218;42.874;25.320;2022-11-20T08:30:57;9.53;;;7.03;;
20114;SDS011;10218;42.874;25.320;2022-11-20T08:33:25;10.50;;;7.33;;
20114;SDS011;10218;42.874;25.320;2022-11-20T08:35:52;9.33;;;7.03;;
20114;SDS011;10218;42.874;25.320;2022-11-20T08:38:20;9.23;;;7.17;;
20114;SDS011;10218;42.874;25.320;2022-11-20T08:40:47;9.77;;;8.07;;
20114;SDS011;10218;42.874;25.320;2022-11-20T08:43:34;10.73;;;7.77;;
20114;SDS011;10218;42.874;25.320;2022-11-20T08:46:01;9.70;;;7.73;;
20114;SDS011;10218;42.874;25.320;2022-11-20T08:48:28;14.47;;;7.80;;
20114;SDS011;10218;42.874;25.320;2022-11-20T08:50:57;14.10;;;8.07;;
20114;SDS011;10218;42.874;25.320;2022-11-20T08:53:26;9.37;;;7.70;;
20114;SDS011;10218;42.874;25.320;2022-11-20T08:55:54;10.63;;;8.93;;
20114;SDS011;10218;42.874;25.320;2022-11-20T08:58:21;11.50;;;8.10;;
20114;SDS011;10218;42.874;25.320;2022-11-20T09:00:48;11.37;;;8.43;;
20114;SDS011;10218;42.874;25.320;2022-11-20T09:03:15;10.80;;;8.87;;
20114;SDS011;10218;42.874;25.320;2022-11-20T09:05:42;11.40;;;8.30;;
20114;SDS011;10218;42.874;25.320;2022-11-20T09:08:10;12.17;;;9.07;;
20114;SDS011;10218;42.874;25.320;2022-11-20T09:10:37;11.40;;;8.87;;
20114;SDS011;10218;42.874;25.320;2022-11-20T09:13:06;11.03;;;9.27;;
20114;SDS011;10218;42.874;25.320;2022-11-20T09:15:34;13.87;;;9.23;;
20114;SDS011;10218;42.874;25.320;2022-11-20T09:18:02;13.17;;;9.50;;
20114;SDS011;10218;42.874;25.320;2022-11-20T09:20:31;13.20;;;9.93;;
20114;SDS011;10218;42.874;25.320;2022-11-20T09:22:59;13.50;;;10.30;;
20114;SDS011;10218;42.874;25.320;2022-11-20T09:25:26;13.20;;;10.13;;
20114;SDS011;10218;42.874;25.320;2022-11-20T09:27:57;13.47;;;10.50;;
20114;SDS011;10218;42.874;25.320;2022-11-20T09:30:25;17.97;;;11.33;;
20114;SDS011;10218;42.874;25.320;2022-11-20T09:32:53;15.80;;;11.00;;
20114;SDS011;10218;42.874;25.320;2022-11-20T09:35:21;15.10;;;10.60;;
20114;SDS011;10218;42.874;25.320;2022-11-20T09:37:48;12.17;;;10.00;;
20114;SDS011;10218;42.874;25.320;2022-11-20T09:40:18;13.63;;;10.20;;
20114;SDS011;10218;42.874;25.320;2022-11-20T09:51:01;11.20;;;8.70;;
20114;SDS011;10218;42.874;25.320;2022-11-20T09:56:27;13.30;;;9.70;;
20114;SDS011;10218;42.874;25.320;2022-11-20T09:58:57;12.60;;;9.23;;
20114;SDS011;10218;42.874;25.320;2022-11-20T10:01:30;11.60;;;9.90;;
20114;SDS011;10218;42.874;25.320;2022-11-20T10:04:12;15.50;;;10.27;;
20114;SDS011;10218;42.874;25.320;2022-11-20T10:09:56;13.97;;;9.70;;
20114;SDS011;10218;42.874;25.320;2022-11-20T10:29:34;11.90;;;8.80;;
20114;SDS011;10218;42.874;25.320;2022-11-20T10:32:15;12.13;;;9.27;;
20114;SDS011;10218;42.874;25.320;2022-11-20T10:37:31;12.07;;;8.90;;
20114;SDS011;10218;42.874;25.320;2022-11-20T10:40:09;14.43;;;9.50;;
20114;SDS011;10218;42.874;25.320;2022-11-20T10:42:45;15.03;;;10.80;;
20114;SDS011;10218;42.874;25.320;2022-11-20T10:48:01;15.83;;;11.43;;
20114;SDS011;10218;42.874;25.320;2022-11-20T10:50:35;15.93;;;10.80;;
20114;SDS011;10218;42.874;25.320;2022-11-20T10:55:43;16.03;;;11.90;;
20114;SDS011;10218;42.874;25.320;2022-11-20T10:58:28;16.77;;;11.17;;
20114;SDS011;10218;42.874;25.320;2022-11-20T11:01:17;13.07;;;10.03;;
20114;SDS011;10218;42.874;25.320;2022-11-20T11:03:48;12.57;;;9.77;;
20114;SDS011;10218;42.874;25.320;2022-11-20T11:09:11;12.60;;;8.97;;
20114;SDS011;10218;42.874;25.320;2022-11-20T11:11:44;10.23;;;8.40;;
20114;SDS011;10218;42.874;25.320;2022-11-20T11:14:13;12.03;;;9.43;;
20114;SDS011;10218;42.874;25.320;2022-11-20T11:16:51;13.43;;;9.20;;
20114;SDS011;10218;42.874;25.320;2022-11-20T11:19:21;12.00;;;9.60;;
20114;SDS011;10218;42.874;25.320;2022-11-20T11:24:26;13.80;;;10.30;;
20114;SDS011;10218;42.874;25.320;2022-11-20T11:27:12;14.87;;;10.73;;
20114;SDS011;10218;42.874;25.320;2022-11-20T11:29:43;13.47;;;10.27;;
20114;SDS011;10218;42.874;25.320;2022-11-20T11:32:17;15.83;;;11.40;;
20114;SDS011;10218;42.874;25.320;2022-11-20T11:35:03;14.13;;;10.90;;
20114;SDS011;10218;42.874;25.320;2022-11-20T11:37:37;14.80;;;10.93;;
20114;SDS011;10218;42.874;25.320;2022-11-20T11:40:06;14.00;;;11.33;;
20114;SDS011;10218;42.874;25.320;2022-11-20T11:42:54;14.10;;;10.50;;
20114;SDS011;10218;42.874;25.320;2022-11-20T11:45:25;15.30;;;10.73;;
20114;SDS011;10218;42.874;25.320;2022-11-20T11:47:53;16.67;;;10.93;;
20114;SDS011;10218;42.874;25.320;2022-11-20T11:50:28;15.73;;;11.77;;
20114;SDS011;10218;42.874;25.320;2022-11-20T11:52:59;16.67;;;11.90;;
20114;SDS011;10218;42.874;25.320;2022-11-20T12:03:38;15.63;;;11.80;;
20114;SDS011;10218;42.874;25.320;2022-11-20T12:06:12;18.00;;;12.30;;
20114;SDS011;10218;42.874;25.320;2022-11-20T12:08:49;14.67;;;11.70;;
20114;SDS011;10218;42.874;25.320;2022-11-20T12:16:42;13.57;;;10.77;;
20114;SDS011;10218;42.874;25.320;2022-11-20T12:19:12;16.93;;;12.03;;
20114;SDS011;10218;42.874;25.320;2022-11-20T12:25:14;17.97;;;11.90;;
20114;SDS011;10218;42.874;25.320;2022-11-20T12:31:04;19.20;;;12.63;;
20114;SDS011;10218;42.874;25.320;2022-11-20T12:39:05;20.10;;;14.07;;
20114;SDS011;10218;42.874;25.320;2022-11-20T12:44:36;24.60;;;13.80;;
20114;SDS011;10218;42.874;25.320;2022-11-20T12:58:38;22.57;;;14.63;;
20114;SDS011;10218;42.874;25.320;2022-11-20T13:07:08;23.00;;;14.50;;
20114;SDS011;10218;42.874;25.320;2022-11-20T13:09:40;20.73;;;14.77;;
20114;SDS011;10218;42.874;25.320;2022-11-20T13:17:46;26.30;;;16.13;;
20114;SDS011;10218;42.874;25.320;2022-11-20T13:20:27;23.93;;;16.40;;
20114;SDS011;10218;42.874;25.320;2022-11-20T13:22:56;26.90;;;17.00;;
20114;SDS011;10218;42.874;25.320;2022-11-20T13:25:32;26.23;;;17.23;;
20114;SDS011;10218;42.874;25.320;2022-11-20T13:30:36;23.57;;;16.90;;
20114;SDS011;10218;42.874;25.320;2022-11-20T13:35:57;29.60;;;19.50;;
20114;SDS011;10218;42.874;25.320;2022-11-20T13:38:40;24.43;;;16.93;;
20114;SDS011;10218;42.874;25.320;2022-11-20T13:41:11;24.43;;;17.20;;
20114;SDS011;10218;42.874;25.320;2022-11-20T13:46:46;23.90;;;16.27;;
20114;SDS011;10218;42.874;25.320;2022-11-20T13:51:51;23.80;;;15.67;;
20114;SDS011;10218;42.874;25.320;2022-11-20T13:54:44;28.07;;;17.70;;
20114;SDS011;10218;42.874;25.320;2022-11-20T14:00:31;36.10;;;19.20;;
20114;SDS011;10218;42.874;25.320;2022-11-20T14:05:54;32.57;;;19.37;;
20114;SDS011;10218;42.874;25.320;2022-11-20T14:08:35;34.53;;;19.50;;
20114;SDS011;10218;42.874;25.320;2022-11-20T14:11:12;32.57;;;18.80;;
20114;SDS011;10218;42.874;25.320;2022-11-20T14:14:04;33.27;;;20.57;;
20114;SDS011;10218;42.874;25.320;2022-11-20T14:16:42;37.57;;;21.97;;
20114;SDS011;10218;42.874;25.320;2022-11-20T14:21:55;34.63;;;21.23;;
20114;SDS011;10218;42.874;25.320;2022-11-20T14:24:35;31.23;;;19.87;;
20114;SDS011;10218;42.874;25.320;2022-11-20T14:27:02;29.40;;;18.67;;
20114;SDS011;10218;42.874;25.320;2022-11-20T14:29:32;31.87;;;19.50;;
20114;SDS011;10218;42.874;25.320;2022-11-20T14:32:02;29.93;;;18.17;;
20114;SDS011;10218;42.874;25.320;2022-11-20T14:34:32;25.87;;;16.93;;
20114;SDS011;10218;42.874;25.320;2022-11-20T14:37:05;27.20;;;18.00;;
20114;SDS011;10218;42.874;25.320;2022-11-20T14:39:42;29.37;;;19.80;;
20114;SDS011;10218;42.874;25.320;2022-11-20T14:42:19;29.97;;;19.50;;
20114;SDS011;10218;42.874;25.320;2022-11-20T14:44:50;29.80;;;20.57;;
20114;SDS011;10218;42.874;25.320;2022-11-20T14:47:22;31.20;;;19.93;;
20114;SDS011;10218;42.874;25.320;2022-11-20T14:49:55;33.20;;;21.53;;
20114;SDS011;10218;42.874;25.320;2022-11-20T14:52:25;34.90;;;21.20;;
20114;SDS011;10218;42.874;25.320;2022-11-20T14:54:54;34.53;;;22.37;;
20114;SDS011;10218;42.874;25.320;2022-11-20T15:00:03;34.70;;;21.83;;
20114;SDS011;10218;42.874;25.320;2022-11-20T15:02:34;29.07;;;20.53;;
20114;SDS011;10218;42.874;25.320;2022-11-20T15:05:05;29.23;;;20.20;;
20114;SDS011;10218;42.874;25.320;2022-11-20T15:07:33;32.90;;;22.27;;
20114;SDS011;10218;42.874;25.320;2022-11-20T15:12:48;28.93;;;20.90;;
20114;SDS011;10218;42.874;25.320;2022-11-20T15:15:25;32.80;;;24.10;;
20114;SDS011;10218;42.874;25.320;2022-11-20T15:17:59;24.67;;;15.70;;
20114;SDS011;10218;42.874;25.320;2022-11-20T15:20:27;26.97;;;18.23;;
20114;SDS011;10218;42.874;25.320;2022-11-20T15:22:56;30.40;;;21.63;;
20114;SDS011;10218;42.874;25.320;2022-11-20T15:25:23;25.77;;;18.27;;
20114;SDS011;10218;42.874;25.320;2022-11-20T15:27:53;30.03;;;21.10;;
20114;SDS011;10218;42.874;25.320;2022-11-20T15:30:22;28.43;;;20.40;;
20114;SDS011;10218;42.874;25.320;2022-11-20T15:32:50;21.63;;;15.40;;
20114;SDS011;10218;42.874;25.320;2022-11-20T15:35:17;25.10;;;17.63;;
20114;SDS011;10218;42.874;25.320;2022-11-20T15:37:44;24.47;;;16.83;;
20114;SDS011;10218;42.874;25.320;2022-11-20T15:40:11;28.60;;;18.00;;
20114;SDS011;10218;42.874;25.320;2022-11-20T15:42:40;29.70;;;18.10;;
20114;SDS011;10218;42.874;25.320;2022-11-20T15:45:27;32.50;;;20.33;;
20114;SDS011;10218;42.874;25.320;2022-11-20T15:47:57;32.60;;;20.03;;
20114;SDS011;10218;42.874;25.320;2022-11-20T15:50:27;26.47;;;16.20;;
20114;SDS011;10218;42.874;25.320;2022-11-20T15:53:10;16.87;;;10.97;;
20114;SDS011;10218;42.874;25.320;2022-11-20T15:55:37;16.33;;;10.97;;
20114;SDS011;10218;42.874;25.320;2022-11-20T15:58:04;14.90;;;10.73;;
20114;SDS011;10218;42.874;25.320;2022-11-20T16:00:31;19.27;;;12.53;;
20114;SDS011;10218;42.874;25.320;2022-11-20T16:02:58;15.70;;;10.17;;
20114;SDS011;10218;42.874;25.320;2022-11-20T16:05:28;13.60;;;9.07;;
20114;SDS011;10218;42.874;25.320;2022-11-20T16:07:56;13.97;;;8.63;;
20114;SDS011;10218;42.874;25.320;2022-11-20T16:10:26;12.30;;;9.20;;
20114;SDS011;10218;42.874;25.320;2022-11-20T16:12:52;13.87;;;9.40;;
20114;SDS011;10218;42.874;25.320;2022-11-20T16:15:39;16.83;;;12.30;;
20114;SDS011;10218;42.874;25.320;2022-11-20T16:18:13;37.70;;;29.27;;
20114;SDS011;10218;42.874;25.320;2022-11-20T16:20:42;39.70;;;29.70;;
20114;SDS011;10218;42.874;25.320;2022-11-20T16:23:11;50.13;;;35.10;;
20114;SDS011;10218;42.874;25.320;2022-11-20T16:25:38;51.03;;;37.00;;
20114;SDS011;10218;42.874;25.320;2022-11-20T16:28:06;54.53;;;33.97;;
20114;SDS011;10218;42.874;25.320;2022-11-20T16:30:34;54.20;;;27.63;;
20114;SDS011;10218;42.874;25.320;2022-11-20T16:33:01;50.77;;;26.50;;
20114;SDS011;10218;42.874;25.320;2022-11-20T16:35:30;49.23;;;25.53;;
20114;SDS011;10218;42.874;25.320;2022-11-20T16:37:59;48.20;;;25.83;;
20114;SDS011;10218;42.874;25.320;2022-11-20T16:40:27;48.00;;;28.73;;
20114;SDS011;10218;42.874;25.320;2022-11-20T16:42:54;32.53;;;20.10;;